Time;durP1;ratioP1;P1;durP2;ratioP2;P2;SDS_P1;SDS_P2;PMS_P1;PMS_P2;Temp;Humidity;BMP_temperature;BMP_pressure;BME280_temperature;BME280_humidity;BME280_pressure;Samples;Min_cycle;Max_cycle;Signal;HPM_P1;HPM_P2
2022/11/27 00:01:19;;;;;;;1.17;1.15;;;;;;;;;;5046364;28;20547;-70
2022/11/27 00:03:48;;;;;;;2.25;1.30;;;;;;;;;;5047390;28;20057;-70
2022/11/27 00:06:18;;;;;;;7.03;3.50;;;;;;;;;;5050572;28;20074;-70
2022/11/27 00:08:48;;;;;;;1.73;1.08;;;;;;;;;;5049450;28;20088;-71
2022/11/27 00:11:17;;;;;;;6.28;1.92;;;;;;;;;;5048886;28;20053;-70
2022/11/27 00:13:46;;;;;;;3.60;2.35;;;;;;;;;;5050489;28;20088;-70
2022/11/27 00:16:15;;;;;;;2.85;1.63;;;;;;;;;;5044863;28;20085;-70
2022/11/27 00:18:44;;;;;;;2.58;2.22;;;;;;;;;;5051985;28;20056;-71
2022/11/27 00:21:14;;;;;;;2.17;1.33;;;;;;;;;;5042530;28;20048;-70
2022/11/27 00:23:43;;;;;;;1.52;1.23;;;;;;;;;;5048077;28;20155;-71
2022/11/27 00:26:13;;;;;;;2.78;1.60;;;;;;;;;;5052757;28;20040;-70
2022/11/27 00:28:42;;;;;;;2.22;1.35;;;;;;;;;;5051100;28;20060;-70
2022/11/27 00:31:14;;;;;;;1.63;1.52;;;;;;;;;;5054223;28;20110;-70
2022/11/27 00:33:43;;;;;;;1.80;1.60;;;;;;;;;;5042250;28;20080;-70
2022/11/27 00:36:12;;;;;;;5.45;1.15;;;;;;;;;;5053619;28;20107;-70
2022/11/27 00:38:40;;;;;;;1.65;1.55;;;;;;;;;;5036996;28;20545;-70
2022/11/27 00:41:09;;;;;;;1.10;1.10;;;;;;;;;;5049805;28;20128;-70
2022/11/27 00:43:40;;;;;;;0.80;0.80;;;;;;;;;;5051455;28;20456;-70
2022/11/27 00:46:12;;;;;;;0.93;0.93;;;;;;;;;;5045227;28;20041;-70
2022/11/27 00:48:41;;;;;;;2.35;0.82;;;;;;;;;;5039863;28;20450;-70
2022/11/27 00:51:11;;;;;;;2.75;2.17;;;;;;;;;;5055736;28;20047;-70
2022/11/27 00:53:40;;;;;;;1.58;0.95;;;;;;;;;;5051087;28;20155;-70
2022/11/27 00:56:09;;;;;;;2.70;1.10;;;;;;;;;;5048587;28;20787;-71
2022/11/27 00:58:38;;;;;;;2.55;2.08;;;;;;;;;;5049457;28;20071;-69
2022/11/27 01:01:08;;;;;;;1.23;1.13;;;;;;;;;;5063756;28;20059;-70
2022/11/27 01:03:37;;;;;;;1.55;1.45;;;;;;;;;;5038912;28;20064;-70
2022/11/27 01:06:06;;;;;;;1.23;0.98;;;;;;;;;;5053108;28;20052;-70
2022/11/27 01:08:35;;;;;;;5.03;1.63;;;;;;;;;;5048359;28;20331;-70
2022/11/27 01:11:04;;;;;;;0.85;0.85;;;;;;;;;;5049355;28;20049;-70
2022/11/27 01:13:34;;;;;;;1.15;1.05;;;;;;;;;;5042790;28;20504;-70
2022/11/27 01:16:04;;;;;;;1.30;1.20;;;;;;;;;;5053609;28;20460;-70
2022/11/27 01:18:34;;;;;;;5.97;1.35;;;;;;;;;;5046199;28;20135;-70
2022/11/27 01:21:03;;;;;;;3.25;1.73;;;;;;;;;;5047844;28;20057;-70
2022/11/27 01:23:31;;;;;;;2.80;2.17;;;;;;;;;;5047183;28;20489;-70
2022/11/27 01:26:01;;;;;;;1.20;1.10;;;;;;;;;;5047984;28;20094;-70
2022/11/27 01:28:29;;;;;;;0.65;0.65;;;;;;;;;;5042120;28;20057;-70
2022/11/27 01:30:58;;;;;;;3.45;1.63;;;;;;;;;;5041189;28;20114;-70
2022/11/27 01:33:26;;;;;;;1.35;0.85;;;;;;;;;;5038069;28;20126;-71
2022/11/27 01:35:57;;;;;;;2.85;1.70;;;;;;;;;;5044786;28;20048;-70
2022/11/27 01:38:26;;;;;;;0.70;0.70;;;;;;;;;;5035407;28;20135;-70
2022/11/27 01:40:58;;;;;;;1.40;1.30;;;;;;;;;;5037249;28;20060;-72
2022/11/27 01:43:37;;;;;;;2.72;1.63;;;;;;;;;;5037990;28;20052;-71
2022/11/27 01:46:06;;;;;;;2.17;1.67;;;;;;;;;;5043071;28;20053;-70
2022/11/27 01:48:35;;;;;;;2.65;1.27;;;;;;;;;;5039067;28;20061;-70
2022/11/27 01:51:05;;;;;;;1.70;1.25;;;;;;;;;;5041271;28;20049;-70
2022/11/27 01:53:34;;;;;;;2.63;1.55;;;;;;;;;;5035316;28;20075;-71
2022/11/27 01:56:04;;;;;;;0.90;0.90;;;;;;;;;;5039228;28;20437;-71
2022/11/27 01:58:34;;;;;;;0.98;0.88;;;;;;;;;;5041009;28;20490;-71
2022/11/27 02:01:02;;;;;;;1.52;1.48;;;;;;;;;;5041428;28;21911;-70
2022/11/27 02:03:31;;;;;;;1.58;1.48;;;;;;;;;;5037596;28;20060;-70
2022/11/27 02:05:59;;;;;;;2.17;1.65;;;;;;;;;;5038491;28;20055;-71
2022/11/27 02:08:29;;;;;;;0.47;0.47;;;;;;;;;;5036785;28;20467;-70
2022/11/27 02:11:01;;;;;;;2.28;2.08;;;;;;;;;;5037132;28;20052;-70
2022/11/27 02:13:30;;;;;;;1.55;1.13;;;;;;;;;;5036076;28;20473;-70
2022/11/27 02:16:04;;;;;;;0.38;0.38;;;;;;;;;;5044978;28;20048;-69
2022/11/27 02:18:36;;;;;;;0.50;0.50;;;;;;;;;;5041513;28;20474;-70
2022/11/27 02:21:06;;;;;;;1.58;0.98;;;;;;;;;;5042858;28;20048;-69
2022/11/27 02:23:51;;;;;;;1.60;1.50;;;;;;;;;;5037759;28;20049;-70
2022/11/27 02:26:42;;;;;;;1.75;1.58;;;;;;;;;;5038008;28;20509;-70
2022/11/27 02:29:13;;;;;;;1.58;0.98;;;;;;;;;;5042355;28;20048;-70
2022/11/27 02:31:46;;;;;;;4.38;2.25;;;;;;;;;;5040365;28;20053;-69
2022/11/27 02:34:17;;;;;;;4.53;2.05;;;;;;;;;;5049554;28;20148;-70
2022/11/27 02:36:49;;;;;;;1.85;1.73;;;;;;;;;;5045070;28;20229;-70
2022/11/27 02:39:21;;;;;;;1.92;1.63;;;;;;;;;;5042142;28;20147;-69
2022/11/27 02:41:53;;;;;;;2.13;0.93;;;;;;;;;;5040597;28;20085;-70
2022/11/27 02:44:24;;;;;;;0.60;0.60;;;;;;;;;;5045032;28;20068;-70
2022/11/27 02:46:53;;;;;;;2.03;1.63;;;;;;;;;;5040079;28;20048;-70
2022/11/27 02:49:23;;;;;;;1.77;1.10;;;;;;;;;;5048639;28;20063;-70
2022/11/27 02:51:54;;;;;;;1.60;1.50;;;;;;;;;;5038064;28;20520;-70
2022/11/27 02:54:25;;;;;;;4.88;1.27;;;;;;;;;;5050331;28;20049;-70
2022/11/27 02:56:54;;;;;;;1.85;0.98;;;;;;;;;;5049434;28;20044;-69
2022/11/27 02:59:25;;;;;;;1.90;1.80;;;;;;;;;;5047474;28;20050;-70
2022/11/27 03:01:56;;;;;;;2.50;0.90;;;;;;;;;;5047126;28;20056;-69
2022/11/27 03:04:27;;;;;;;1.08;0.80;;;;;;;;;;5054333;28;20042;-70
2022/11/27 03:06:57;;;;;;;0.70;0.70;;;;;;;;;;5037812;28;20076;-70
2022/11/27 03:09:28;;;;;;;5.57;1.70;;;;;;;;;;5041948;28;21245;-69
2022/11/27 03:11:57;;;;;;;1.48;0.90;;;;;;;;;;5039473;28;20075;-71
2022/11/27 03:14:27;;;;;;;0.98;0.73;;;;;;;;;;5062689;28;20049;-70
2022/11/27 03:16:59;;;;;;;0.98;0.63;;;;;;;;;;5049148;28;20053;-70
2022/11/27 03:19:31;;;;;;;2.00;1.15;;;;;;;;;;5050381;28;20051;-70
2022/11/27 03:22:01;;;;;;;1.27;1.25;;;;;;;;;;5050173;28;20577;-69
2022/11/27 03:24:32;;;;;;;1.73;1.63;;;;;;;;;;5050040;28;20102;-70
2022/11/27 03:27:01;;;;;;;1.30;0.98;;;;;;;;;;5037814;28;20155;-70
2022/11/27 03:29:35;;;;;;;0.93;0.90;;;;;;;;;;5051044;28;20485;-71
2022/11/27 03:32:04;;;;;;;0.35;0.35;;;;;;;;;;5038698;28;20072;-69
2022/11/27 03:34:33;;;;;;;3.38;1.55;;;;;;;;;;5054127;28;20485;-70
2022/11/27 03:37:02;;;;;;;0.85;0.85;;;;;;;;;;5046648;28;20463;-70
2022/11/27 03:39:31;;;;;;;0.68;0.63;;;;;;;;;;5055063;28;20045;-71
2022/11/27 03:42:05;;;;;;;0.52;0.52;;;;;;;;;;5047516;28;20053;-70
2022/11/27 03:44:41;;;;;;;2.65;1.48;;;;;;;;;;5053182;28;20072;-69
2022/11/27 03:47:13;;;;;;;0.73;0.73;;;;;;;;;;5043297;28;20056;-70
2022/11/27 03:49:49;;;;;;;0.63;0.63;;;;;;;;;;5048635;28;20062;-69
2022/11/27 03:52:24;;;;;;;2.17;1.85;;;;;;;;;;5045193;28;20049;-70
2022/11/27 03:54:55;;;;;;;0.50;0.50;;;;;;;;;;5048223;28;20041;-69
2022/11/27 03:57:29;;;;;;;0.93;0.93;;;;;;;;;;5045062;28;20765;-69
2022/11/27 03:59:59;;;;;;;1.23;1.10;;;;;;;;;;5045483;28;20044;-69
2022/11/27 04:02:31;;;;;;;0.30;0.30;;;;;;;;;;5061003;28;20045;-69
2022/11/27 04:04:59;;;;;;;0.60;0.57;;;;;;;;;;5052454;28;20064;-70
2022/11/27 04:07:28;;;;;;;0.43;0.43;;;;;;;;;;5050973;28;20047;-70
2022/11/27 04:09:56;;;;;;;4.82;1.27;;;;;;;;;;5043944;28;20515;-69
2022/11/27 04:12:24;;;;;;;1.45;0.95;;;;;;;;;;5047789;28;20044;-70
2022/11/27 04:14:53;;;;;;;0.52;0.35;;;;;;;;;;5032774;28;20050;-70
2022/11/27 04:17:23;;;;;;;0.95;0.93;;;;;;;;;;5045464;28;20560;-69
2022/11/27 04:19:51;;;;;;;2.08;1.25;;;;;;;;;;5040873;28;20068;-70
2022/11/27 04:22:20;;;;;;;0.40;0.40;;;;;;;;;;5047407;28;20064;-70
2022/11/27 04:24:48;;;;;;;1.48;0.75;;;;;;;;;;5042528;28;20059;-69
2022/11/27 04:27:16;;;;;;;0.35;0.35;;;;;;;;;;5050326;28;20417;-70
2022/11/27 04:29:45;;;;;;;2.30;1.08;;;;;;;;;;5050346;28;20052;-69
2022/11/27 04:32:13;;;;;;;0.40;0.40;;;;;;;;;;5053812;28;20068;-69
2022/11/27 04:34:43;;;;;;;1.17;0.47;;;;;;;;;;5040369;28;20052;-69
2022/11/27 04:37:11;;;;;;;0.85;0.70;;;;;;;;;;5052275;28;20048;-69
2022/11/27 04:39:40;;;;;;;3.47;0.57;;;;;;;;;;5040403;28;20270;-71
2022/11/27 04:42:08;;;;;;;1.30;0.40;;;;;;;;;;5044612;28;20045;-69
2022/11/27 04:44:37;;;;;;;0.50;0.50;;;;;;;;;;5044759;28;20049;-69
2022/11/27 04:47:06;;;;;;;0.40;0.40;;;;;;;;;;5050010;28;20045;-69
2022/11/27 04:49:35;;;;;;;0.65;0.63;;;;;;;;;;5039766;28;20064;-69
2022/11/27 04:52:05;;;;;;;0.38;0.38;;;;;;;;;;5046515;28;20132;-69
2022/11/27 04:54:33;;;;;;;0.75;0.75;;;;;;;;;;5043625;28;20037;-70
2022/11/27 04:57:02;;;;;;;1.10;1.00;;;;;;;;;;5050307;28;20047;-70
2022/11/27 04:59:31;;;;;;;0.47;0.45;;;;;;;;;;5042602;28;20049;-69
2022/11/27 05:01:59;;;;;;;0.75;0.55;;;;;;;;;;5046355;28;20053;-69
2022/11/27 05:04:28;;;;;;;0.55;0.55;;;;;;;;;;5047499;28;20068;-70
2022/11/27 05:06:56;;;;;;;0.50;0.50;;;;;;;;;;5057427;28;20056;-69
2022/11/27 05:09:26;;;;;;;0.40;0.40;;;;;;;;;;5049867;28;20056;-69
2022/11/27 05:11:54;;;;;;;0.40;0.40;;;;;;;;;;5052623;28;20083;-69
2022/11/27 05:14:27;;;;;;;0.30;0.30;;;;;;;;;;5036832;28;20187;-69
2022/11/27 05:16:57;;;;;;;0.20;0.20;;;;;;;;;;5049105;28;20458;-69
2022/11/27 05:19:27;;;;;;;0.30;0.30;;;;;;;;;;5039836;28;20502;-71
2022/11/27 05:21:56;;;;;;;0.55;0.55;;;;;;;;;;5055939;28;20043;-69
2022/11/27 05:24:27;;;;;;;0.73;0.32;;;;;;;;;;5041404;28;20505;-69
2022/11/27 05:26:55;;;;;;;0.68;0.68;;;;;;;;;;5053442;28;20045;-69
2022/11/27 05:29:24;;;;;;;3.13;0.88;;;;;;;;;;5046497;28;20145;-69
2022/11/27 05:31:52;;;;;;;0.77;0.77;;;;;;;;;;5050887;28;20135;-70
2022/11/27 05:34:21;;;;;;;0.60;0.60;;;;;;;;;;5034289;28;20124;-70
2022/11/27 05:36:50;;;;;;;0.85;0.80;;;;;;;;;;5053343;28;20136;-69
2022/11/27 05:39:18;;;;;;;1.08;0.80;;;;;;;;;;5051571;28;20048;-70
2022/11/27 05:41:48;;;;;;;0.50;0.50;;;;;;;;;;5052665;28;20080;-71
2022/11/27 05:44:17;;;;;;;0.82;0.55;;;;;;;;;;5043405;28;20049;-69
2022/11/27 05:46:45;;;;;;;1.00;0.57;;;;;;;;;;5053696;28;20138;-69
2022/11/27 05:49:14;;;;;;;0.20;0.20;;;;;;;;;;5050534;28;20505;-72
2022/11/27 05:51:43;;;;;;;1.58;0.50;;;;;;;;;;5056528;28;20041;-69
2022/11/27 05:54:18;;;;;;;0.43;0.43;;;;;;;;;;5045012;28;20468;-69
2022/11/27 05:56:48;;;;;;;1.15;0.70;;;;;;;;;;5042178;28;20057;-69
2022/11/27 05:59:17;;;;;;;0.20;0.20;;;;;;;;;;5040134;28;20055;-69
2022/11/27 06:01:45;;;;;;;1.63;0.75;;;;;;;;;;5043472;28;20045;-70
2022/11/27 06:04:14;;;;;;;0.30;0.30;;;;;;;;;;5039944;28;20045;-69
2022/11/27 06:06:42;;;;;;;0.40;0.40;;;;;;;;;;5057263;28;20049;-69
2022/11/27 06:09:10;;;;;;;0.57;0.57;;;;;;;;;;5048491;28;20452;-69
2022/11/27 06:11:41;;;;;;;1.17;1.08;;;;;;;;;;5038156;28;20256;-69
2022/11/27 06:14:11;;;;;;;1.67;1.00;;;;;;;;;;5037003;28;20048;-70
2022/11/27 06:16:40;;;;;;;2.28;0.50;;;;;;;;;;5048005;28;20561;-69
2022/11/27 06:19:09;;;;;;;0.45;0.45;;;;;;;;;;5041713;28;20041;-69
2022/11/27 06:21:37;;;;;;;0.57;0.57;;;;;;;;;;5044136;28;20052;-70
2022/11/27 06:24:06;;;;;;;0.50;0.50;;;;;;;;;;5043177;28;20049;-69
2022/11/27 06:26:35;;;;;;;2.63;0.75;;;;;;;;;;5045994;28;20065;-69
2022/11/27 06:29:04;;;;;;;0.50;0.50;;;;;;;;;;5043976;28;20052;-69
2022/11/27 06:31:34;;;;;;;0.85;0.55;;;;;;;;;;5040522;28;20052;-69
2022/11/27 06:34:03;;;;;;;0.90;0.90;;;;;;;;;;5040254;28;20045;-69
2022/11/27 06:36:32;;;;;;;0.47;0.47;;;;;;;;;;5038304;28;20148;-69
2022/11/27 06:39:01;;;;;;;0.70;0.70;;;;;;;;;;5047542;28;20082;-69
2022/11/27 06:41:29;;;;;;;0.60;0.60;;;;;;;;;;5047914;28;20053;-69
2022/11/27 06:43:59;;;;;;;0.77;0.60;;;;;;;;;;5034316;28;20069;-69
2022/11/27 06:46:28;;;;;;;0.45;0.45;;;;;;;;;;5050098;28;20057;-69
2022/11/27 06:48:58;;;;;;;0.52;0.52;;;;;;;;;;5036822;28;20056;-69
2022/11/27 06:51:28;;;;;;;0.40;0.40;;;;;;;;;;5037852;28;20053;-69
2022/11/27 06:53:57;;;;;;;0.85;0.73;;;;;;;;;;5038537;28;20049;-69
2022/11/27 06:56:26;;;;;;;0.35;0.30;;;;;;;;;;5043676;28;20064;-69
2022/11/27 06:58:55;;;;;;;0.60;0.60;;;;;;;;;;5038255;28;20056;-69
2022/11/27 07:01:24;;;;;;;0.55;0.55;;;;;;;;;;5043995;28;20087;-69
2022/11/27 07:03:53;;;;;;;0.20;0.20;;;;;;;;;;5038295;28;20154;-68
2022/11/27 07:06:23;;;;;;;0.47;0.47;;;;;;;;;;5041377;28;20048;-69
2022/11/27 07:08:52;;;;;;;1.73;0.60;;;;;;;;;;5051883;28;20072;-69
2022/11/27 07:11:21;;;;;;;1.05;0.30;;;;;;;;;;5045954;28;20044;-69
2022/11/27 07:13:51;;;;;;;0.80;0.45;;;;;;;;;;5041492;28;20053;-69
2022/11/27 07:16:20;;;;;;;0.30;0.30;;;;;;;;;;5051829;28;20459;-70
2022/11/27 07:18:51;;;;;;;1.05;0.63;;;;;;;;;;5043139;28;20044;-69
2022/11/27 07:21:20;;;;;;;0.73;0.73;;;;;;;;;;5050858;28;20052;-69
2022/11/27 07:23:50;;;;;;;0.63;0.40;;;;;;;;;;5046111;28;20084;-70
2022/11/27 07:26:19;;;;;;;1.13;0.70;;;;;;;;;;5050787;28;20121;-71
2022/11/27 07:28:48;;;;;;;0.50;0.30;;;;;;;;;;5043227;28;20079;-69
2022/11/27 07:31:17;;;;;;;0.45;0.43;;;;;;;;;;5041961;28;20470;-69
2022/11/27 07:33:45;;;;;;;1.60;0.85;;;;;;;;;;5042942;28;20053;-69
2022/11/27 07:36:15;;;;;;;0.40;0.40;;;;;;;;;;5044672;28;20513;-69
2022/11/27 07:38:43;;;;;;;6.15;1.33;;;;;;;;;;5040237;28;20064;-69
2022/11/27 07:41:13;;;;;;;0.20;0.20;;;;;;;;;;5056186;28;20045;-69
2022/11/27 07:43:43;;;;;;;0.57;0.47;;;;;;;;;;5048998;28;20348;-68
2022/11/27 07:46:12;;;;;;;1.65;0.63;;;;;;;;;;5052513;28;20065;-68
2022/11/27 07:48:41;;;;;;;1.00;0.80;;;;;;;;;;5046670;28;20045;-68
2022/11/27 07:51:10;;;;;;;0.20;0.20;;;;;;;;;;5044619;28;20107;-69
2022/11/27 07:53:39;;;;;;;0.30;0.30;;;;;;;;;;5049470;28;20056;-71
2022/11/27 07:56:09;;;;;;;0.43;0.43;;;;;;;;;;5049046;28;20053;-69
2022/11/27 07:58:39;;;;;;;0.20;0.20;;;;;;;;;;5044602;28;20080;-68
2022/11/27 08:01:08;;;;;;;1.08;0.40;;;;;;;;;;5050617;28;20057;-69
2022/11/27 08:03:37;;;;;;;0.73;0.57;;;;;;;;;;5049348;28;20469;-69
2022/11/27 08:06:05;;;;;;;0.30;0.30;;;;;;;;;;5050030;28;20045;-69
2022/11/27 08:08:34;;;;;;;3.15;1.10;;;;;;;;;;5052051;28;20098;-68
2022/11/27 08:11:03;;;;;;;0.93;0.90;;;;;;;;;;5045378;28;20088;-68
2022/11/27 08:13:31;;;;;;;0.47;0.47;;;;;;;;;;5042469;28;20192;-69
2022/11/27 08:16:01;;;;;;;0.50;0.50;;;;;;;;;;5053092;28;20059;-69
2022/11/27 08:18:30;;;;;;;0.82;0.50;;;;;;;;;;5044415;28;20048;-69
2022/11/27 08:21:01;;;;;;;0.22;0.22;;;;;;;;;;5048590;28;20493;-70
2022/11/27 08:23:29;;;;;;;5.38;0.43;;;;;;;;;;5043680;28;20096;-69
2022/11/27 08:25:58;;;;;;;0.30;0.30;;;;;;;;;;5037153;28;20045;-71
2022/11/27 08:28:27;;;;;;;0.45;0.45;;;;;;;;;;5043256;28;20379;-71
2022/11/27 08:30:57;;;;;;;1.27;1.20;;;;;;;;;;5045950;28;20068;-72
2022/11/27 08:33:27;;;;;;;0.40;0.38;;;;;;;;;;5037970;28;20159;-71
2022/11/27 08:35:56;;;;;;;0.50;0.50;;;;;;;;;;5037279;28;20052;-71
2022/11/27 08:38:25;;;;;;;0.73;0.73;;;;;;;;;;5044313;28;20051;-70
2022/11/27 08:40:55;;;;;;;0.47;0.30;;;;;;;;;;5048427;28;20057;-69
2022/11/27 08:43:24;;;;;;;0.65;0.52;;;;;;;;;;5044244;28;20576;-70
2022/11/27 08:45:53;;;;;;;0.32;0.32;;;;;;;;;;5051276;28;20053;-69
2022/11/27 08:48:23;;;;;;;0.30;0.30;;;;;;;;;;5033218;28;20053;-70
2022/11/27 08:50:53;;;;;;;0.43;0.40;;;;;;;;;;5049351;28;20045;-70
2022/11/27 08:53:22;;;;;;;0.30;0.30;;;;;;;;;;5039624;28;20041;-70
2022/11/27 08:55:50;;;;;;;1.23;0.75;;;;;;;;;;5040569;28;20382;-69
2022/11/27 08:58:19;;;;;;;1.38;1.00;;;;;;;;;;5040672;28;20060;-70
2022/11/27 09:00:47;;;;;;;1.50;1.30;;;;;;;;;;5044305;28;20480;-69
2022/11/27 09:03:16;;;;;;;0.40;0.40;;;;;;;;;;5031454;28;20081;-70
2022/11/27 09:05:45;;;;;;;0.75;0.50;;;;;;;;;;5039926;28;20682;-70
2022/11/27 09:08:19;;;;;;;0.93;0.70;;;;;;;;;;5041731;28;20083;-70
2022/11/27 09:10:47;;;;;;;0.65;0.40;;;;;;;;;;5041023;28;20072;-70
2022/11/27 09:13:16;;;;;;;0.20;0.20;;;;;;;;;;5034543;28;20053;-70
2022/11/27 09:15:45;;;;;;;0.32;0.32;;;;;;;;;;5041334;28;20288;-72
2022/11/27 09:18:13;;;;;;;0.85;0.73;;;;;;;;;;5044246;28;20140;-70
2022/11/27 09:20:42;;;;;;;0.40;0.40;;;;;;;;;;5037800;28;20041;-70
2022/11/27 09:23:10;;;;;;;0.25;0.25;;;;;;;;;;5045042;28;20057;-70
2022/11/27 09:25:43;;;;;;;1.10;0.90;;;;;;;;;;5043746;28;20049;-70
2022/11/27 09:28:12;;;;;;;0.38;0.38;;;;;;;;;;5046020;28;20072;-70
2022/11/27 09:30:40;;;;;;;3.00;1.30;;;;;;;;;;5044235;28;20096;-70
2022/11/27 09:33:09;;;;;;;0.55;0.50;;;;;;;;;;5045048;28;20053;-70
2022/11/27 09:35:38;;;;;;;1.30;1.15;;;;;;;;;;5039871;28;20088;-72
2022/11/27 09:38:07;;;;;;;1.48;1.33;;;;;;;;;;5038564;28;20421;-71
2022/11/27 09:40:36;;;;;;;0.93;0.35;;;;;;;;;;5042757;28;20128;-70
2022/11/27 09:43:08;;;;;;;1.55;0.50;;;;;;;;;;5044471;28;20102;-70
2022/11/27 09:45:42;;;;;;;1.17;0.85;;;;;;;;;;5047868;28;20044;-70
2022/11/27 09:48:13;;;;;;;0.30;0.30;;;;;;;;;;5036588;28;20106;-70
2022/11/27 09:50:49;;;;;;;0.52;0.52;;;;;;;;;;5037818;28;20052;-70
2022/11/27 09:53:24;;;;;;;0.38;0.38;;;;;;;;;;5047776;28;20102;-72
2022/11/27 09:55:55;;;;;;;1.10;1.10;;;;;;;;;;5043558;28;20056;-71
2022/11/27 09:58:29;;;;;;;3.67;1.05;;;;;;;;;;5036121;28;20053;-70
2022/11/27 10:00:59;;;;;;;1.08;0.82;;;;;;;;;;5045003;28;20072;-71
2022/11/27 10:03:28;;;;;;;0.30;0.22;;;;;;;;;;5046998;28;20512;-70
2022/11/27 10:06:02;;;;;;;0.32;0.32;;;;;;;;;;5050899;28;20553;-70
2022/11/27 10:08:35;;;;;;;0.32;0.13;;;;;;;;;;5049547;28;20045;-71
2022/11/27 10:11:12;;;;;;;0.93;0.77;;;;;;;;;;5044778;28;20119;-70
2022/11/27 10:13:48;;;;;;;0.55;0.55;;;;;;;;;;5049949;28;20462;-70
2022/11/27 10:16:20;;;;;;;0.60;0.60;;;;;;;;;;5048548;28;20048;-70
2022/11/27 10:18:52;;;;;;;0.40;0.40;;;;;;;;;;5049539;28;20103;-70
2022/11/27 10:21:25;;;;;;;0.30;0.30;;;;;;;;;;5050645;28;20072;-70
2022/11/27 10:23:57;;;;;;;0.98;0.93;;;;;;;;;;5044765;28;20395;-70
2022/11/27 10:26:28;;;;;;;0.30;0.30;;;;;;;;;;5049274;28;20389;-70
2022/11/27 10:29:01;;;;;;;0.80;0.70;;;;;;;;;;5047257;28;20056;-69
2022/11/27 10:31:33;;;;;;;0.75;0.55;;;;;;;;;;5044154;28;20416;-70
2022/11/27 10:34:03;;;;;;;0.68;0.68;;;;;;;;;;5049818;28;20055;-70
2022/11/27 10:36:35;;;;;;;0.40;0.40;;;;;;;;;;5046136;28;20037;-70
2022/11/27 10:39:05;;;;;;;0.60;0.60;;;;;;;;;;5052924;28;20048;-70
2022/11/27 10:41:36;;;;;;;1.10;0.60;;;;;;;;;;5048094;28;20495;-70
2022/11/27 10:44:28;;;;;;;0.52;0.52;;;;;;;;;;5050993;28;20131;-70
2022/11/27 10:46:59;;;;;;;1.27;1.15;;;;;;;;;;5051124;28;20551;-70
2022/11/27 10:49:28;;;;;;;0.80;0.75;;;;;;;;;;5048470;28;20118;-72
2022/11/27 10:51:57;;;;;;;1.38;1.27;;;;;;;;;;5049936;28;20041;-70
2022/11/27 10:54:27;;;;;;;0.40;0.40;;;;;;;;;;5049607;28;20126;-70
2022/11/27 10:57:20;;;;;;;0.35;0.35;;;;;;;;;;5052993;28;20045;-70
2022/11/27 10:59:56;;;;;;;1.02;0.98;;;;;;;;;;4997301;28;20057;-71
2022/11/27 11:02:28;;;;;;;1.08;0.98;;;;;;;;;;5051561;28;20100;-70
2022/11/27 11:04:58;;;;;;;1.02;0.93;;;;;;;;;;5055780;28;20136;-70
2022/11/27 11:07:55;;;;;;;1.38;1.25;;;;;;;;;;5046228;28;20143;-71
2022/11/27 11:10:26;;;;;;;0.63;0.47;;;;;;;;;;5050012;28;20053;-70
2022/11/27 11:13:06;;;;;;;3.50;1.30;;;;;;;;;;5051217;28;20559;-71
2022/11/27 11:15:51;;;;;;;0.90;0.85;;;;;;;;;;5053812;28;20052;-70
2022/11/27 11:18:20;;;;;;;0.20;0.20;;;;;;;;;;5052942;28;20053;-72
2022/11/27 11:20:50;;;;;;;1.10;1.10;;;;;;;;;;5048143;28;20049;-71
2022/11/27 11:23:24;;;;;;;2.47;1.30;;;;;;;;;;5052075;28;20045;-71
2022/11/27 11:25:54;;;;;;;4.00;0.82;;;;;;;;;;5052621;28;20052;-71
2022/11/27 11:28:23;;;;;;;1.15;0.80;;;;;;;;;;5051580;28;20060;-71
2022/11/27 11:30:58;;;;;;;0.28;0.28;;;;;;;;;;5053325;28;20068;-70
2022/11/27 11:33:27;;;;;;;0.75;0.75;;;;;;;;;;5050732;28;20485;-70
2022/11/27 11:35:59;;;;;;;0.30;0.30;;;;;;;;;;5052759;28;20048;-70
2022/11/27 11:38:31;;;;;;;1.45;1.13;;;;;;;;;;5051482;28;20505;-70
2022/11/27 11:41:02;;;;;;;0.65;0.65;;;;;;;;;;5051738;28;20049;-70
2022/11/27 11:43:32;;;;;;;1.55;1.15;;;;;;;;;;5052115;28;20064;-70
2022/11/27 11:46:07;;;;;;;2.58;2.05;;;;;;;;;;5049210;28;20049;-71
2022/11/27 11:48:36;;;;;;;1.20;1.20;;;;;;;;;;5042948;28;20067;-70
2022/11/27 11:51:10;;;;;;;1.25;1.15;;;;;;;;;;5049317;28;20498;-70
2022/11/27 11:53:40;;;;;;;0.80;0.80;;;;;;;;;;5052131;28;20072;-71
2022/11/27 11:56:21;;;;;;;2.03;1.52;;;;;;;;;;5049906;28;20052;-70
2022/11/27 11:58:54;;;;;;;1.48;0.85;;;;;;;;;;5067688;28;20138;-70
2022/11/27 12:01:36;;;;;;;1.27;1.17;;;;;;;;;;5072661;28;20177;-70
2022/11/27 12:04:13;;;;;;;0.50;0.50;;;;;;;;;;5070375;28;20613;-71
2022/11/27 12:06:50;;;;;;;0.95;0.85;;;;;;;;;;5069531;28;20228;-70
2022/11/27 12:09:27;;;;;;;2.10;1.17;;;;;;;;;;5068501;28;20377;-70
2022/11/27 12:11:58;;;;;;;0.65;0.65;;;;;;;;;;5068714;28;20589;-70
2022/11/27 12:14:36;;;;;;;1.02;0.65;;;;;;;;;;5070801;28;20072;-70
2022/11/27 12:17:11;;;;;;;1.15;1.05;;;;;;;;;;5069125;28;20123;-69
2022/11/27 12:19:50;;;;;;;2.17;1.15;;;;;;;;;;5073820;28;20045;-70
2022/11/27 12:22:23;;;;;;;0.82;0.82;;;;;;;;;;5072122;28;20053;-70
2022/11/27 12:24:54;;;;;;;1.52;0.95;;;;;;;;;;5068157;28;20114;-70
2022/11/27 12:27:28;;;;;;;1.30;1.00;;;;;;;;;;5071147;28;20549;-69
2022/11/27 12:30:04;;;;;;;2.92;1.23;;;;;;;;;;5070649;28;20064;-70
2022/11/27 12:32:43;;;;;;;0.75;0.55;;;;;;;;;;5067924;28;20040;-69
2022/11/27 12:35:33;;;;;;;0.90;0.63;;;;;;;;;;5068054;28;20053;-70
2022/11/27 12:38:09;;;;;;;0.73;0.70;;;;;;;;;;5062124;28;20095;-69
2022/11/27 12:40:44;;;;;;;1.27;1.17;;;;;;;;;;5069898;28;20044;-70
2022/11/27 12:43:17;;;;;;;1.63;1.52;;;;;;;;;;5068314;28;20128;-70
2022/11/27 12:45:48;;;;;;;1.70;1.60;;;;;;;;;;5070899;28;20047;-70
2022/11/27 12:48:22;;;;;;;0.55;0.55;;;;;;;;;;5068886;28;20139;-69
2022/11/27 12:50:52;;;;;;;0.90;0.90;;;;;;;;;;5063936;28;20048;-69
2022/11/27 12:53:24;;;;;;;1.35;0.73;;;;;;;;;;5070684;28;20099;-70
2022/11/27 12:55:59;;;;;;;1.35;0.95;;;;;;;;;;5069052;28;20048;-69
2022/11/27 12:58:31;;;;;;;4.88;2.00;;;;;;;;;;5064373;28;20102;-70
2022/11/27 13:01:02;;;;;;;0.50;0.50;;;;;;;;;;5066398;28;20040;-70
2022/11/27 13:03:36;;;;;;;0.65;0.65;;;;;;;;;;5067294;28;20048;-69
2022/11/27 13:06:07;;;;;;;2.00;1.45;;;;;;;;;;5055163;28;20503;-69
2022/11/27 13:08:42;;;;;;;0.93;0.93;;;;;;;;;;5077814;28;20068;-69
2022/11/27 13:11:18;;;;;;;4.95;2.78;;;;;;;;;;5066184;28;20044;-70
2022/11/27 13:13:48;;;;;;;1.33;1.13;;;;;;;;;;5065531;28;20397;-70
2022/11/27 13:16:20;;;;;;;1.30;1.13;;;;;;;;;;5065194;28;20063;-70
2022/11/27 13:18:52;;;;;;;1.77;1.20;;;;;;;;;;5065186;28;20045;-69
2022/11/27 13:21:23;;;;;;;2.47;1.20;;;;;;;;;;5060984;28;20049;-70
2022/11/27 13:23:52;;;;;;;1.95;1.60;;;;;;;;;;5058299;28;20468;-70
2022/11/27 13:26:24;;;;;;;1.23;1.13;;;;;;;;;;5069274;28;20114;-69
2022/11/27 13:28:56;;;;;;;2.53;1.17;;;;;;;;;;5073709;28;20044;-70
2022/11/27 13:31:27;;;;;;;1.30;1.15;;;;;;;;;;5063216;28;20041;-70
2022/11/27 13:34:00;;;;;;;2.40;1.60;;;;;;;;;;5061343;28;20390;-70
2022/11/27 13:36:31;;;;;;;4.05;0.70;;;;;;;;;;5068588;28;20413;-70
2022/11/27 13:39:04;;;;;;;1.13;0.82;;;;;;;;;;5068788;28;20468;-70
2022/11/27 13:41:35;;;;;;;3.10;1.30;;;;;;;;;;5068640;28;20102;-70
2022/11/27 13:44:05;;;;;;;1.67;0.70;;;;;;;;;;5062252;28;20036;-70
2022/11/27 13:46:45;;;;;;;1.48;1.05;;;;;;;;;;5060742;28;20503;-70
2022/11/27 13:49:23;;;;;;;3.72;1.00;;;;;;;;;;5065565;28;20075;-70
2022/11/27 13:51:52;;;;;;;1.25;1.15;;;;;;;;;;5063712;28;20060;-70
2022/11/27 13:54:21;;;;;;;3.47;2.00;;;;;;;;;;5068533;28;20546;-70
2022/11/27 13:56:56;;;;;;;1.35;1.15;;;;;;;;;;5066855;28;20048;-70
2022/11/27 13:59:26;;;;;;;4.97;2.38;;;;;;;;;;5068822;28;20451;-70
2022/11/27 14:01:56;;;;;;;0.68;0.57;;;;;;;;;;5059732;28;20045;-70
2022/11/27 14:04:27;;;;;;;5.38;2.58;;;;;;;;;;5068617;28;20052;-70
2022/11/27 14:06:58;;;;;;;1.58;0.60;;;;;;;;;;5070086;28;20079;-70
2022/11/27 14:09:37;;;;;;;0.70;0.60;;;;;;;;;;5060489;28;20053;-70
2022/11/27 14:12:14;;;;;;;2.40;1.38;;;;;;;;;;5072749;28;20048;-70
2022/11/27 14:14:44;;;;;;;0.60;0.60;;;;;;;;;;5074345;28;20530;-70
2022/11/27 14:17:25;;;;;;;2.08;1.20;;;;;;;;;;5072946;28;20047;-70
2022/11/27 14:20:04;;;;;;;1.10;1.00;;;;;;;;;;5072866;28;20071;-70
2022/11/27 14:22:34;;;;;;;7.10;1.58;;;;;;;;;;5070809;28;20128;-70
2022/11/27 14:25:24;;;;;;;0.43;0.43;;;;;;;;;;5067378;28;20139;-70
2022/11/27 14:28:07;;;;;;;1.90;1.00;;;;;;;;;;5072934;28;20102;-70
2022/11/27 14:30:40;;;;;;;0.70;0.55;;;;;;;;;;5051495;28;21326;-70
2022/11/27 14:33:18;;;;;;;2.53;1.13;;;;;;;;;;5063999;28;20406;-70
2022/11/27 14:35:50;;;;;;;4.57;2.35;;;;;;;;;;5074632;28;20052;-71
2022/11/27 14:38:19;;;;;;;3.50;2.22;;;;;;;;;;5070947;28;20052;-70
2022/11/27 14:40:48;;;;;;;5.78;1.85;;;;;;;;;;5073068;28;20140;-70
2022/11/27 14:43:18;;;;;;;0.63;0.63;;;;;;;;;;5065265;28;20044;-70
2022/11/27 14:45:47;;;;;;;0.68;0.52;;;;;;;;;;5059789;28;20132;-70
2022/11/27 14:48:19;;;;;;;2.80;1.42;;;;;;;;;;5063280;28;20052;-70
2022/11/27 14:50:49;;;;;;;1.55;1.45;;;;;;;;;;5084361;28;20052;-70
2022/11/27 14:53:20;;;;;;;0.68;0.65;;;;;;;;;;5069884;28;20083;-71
2022/11/27 14:55:49;;;;;;;4.47;1.85;;;;;;;;;;5072159;28;20057;-70
2022/11/27 14:58:19;;;;;;;1.77;1.65;;;;;;;;;;5067492;28;20128;-70
2022/11/27 15:01:00;;;;;;;1.27;1.13;;;;;;;;;;5067601;28;20052;-70
2022/11/27 15:03:29;;;;;;;1.15;1.05;;;;;;;;;;5072963;28;20048;-70
2022/11/27 15:06:00;;;;;;;1.92;1.42;;;;;;;;;;5073277;28;20056;-70